Olive Hill, KY (41164)

4:08 AM EST on January 18, 2017 (GMT -0500)
Green | | Change Station

Elev 883 ft 38.19 °N, 83.08 °W | Updated 6 minutes ago

Overcast
Overcast
45.3 °F
Feels Like 45 °F
N
0.0
Wind Variable Wind from North
Gusts 0.0 mph

Today
High -- | Low -- °F
--% Chance of Precip.
Yesterday
High -- | Low -- °F
Precip. -- in
Pressure 30.06 in
Visibility 10.0 miles
Clouds Mostly Cloudy 2200 ft
Overcast 2700 ft
Windchill 45 °F
Dew Point 26 °F
Humidity 46%
Rainfall Not available.
Snow Depth Not available.
7:46 AM 5:39 PM
Waning Gibbous, 65% visible
METAR KHTS 180851Z 26008KT 10SM BKN022 OVC027 08/04 A3006 RMK AO2 SLP177 T00830039 51011
Pressure 30.06 in
Visibility 10.0 miles
Clouds Mostly Cloudy 2200 ft
Overcast 2700 ft
Windchill 45 °F
Dew Point 26 °F
Humidity 46%
Rainfall Not available.
Snow Depth Not available.
7:46 AM 5:39 PM
Waning Gibbous, 65% visible
METAR KHTS 180851Z 26008KT 10SM BKN022 OVC027 08/04 A3006 RMK AO2 SLP177 T00830039 51011

Get Your Daily Forecast Email!

Thanks for signing up!

Be on the lookout for a verification email in your inbox.

You'll start receiving the daily forecast at 8 AM.

×

10-Day Weather Forecast

Almanac

Astronomy

Jan. 18, 2017 Rise Set
Actual Time
Civil Twilight
Nautical Twilight
Astronomical Twilight
Moon
Length of Visible Light
Length of Day
Tomorrow will be .
, % of the Moon is Illuminated

Today's Extremes

State Highs State Lows

Community

WunderPhotos

Upload Photos

1,962,540 photos uploaded!

WunderBlog® & News

Nearby

Air Quality

  Air Quality AQ Index Pollutant
Not available.

Snow Depth

Station Depth Elevation

Earthquake Activity

City Distance Mag. Time & Date
Minimum magnitude displayed is 2.5.

Coastal Water Temperatures

Place Temperature

Stations

Nearby Weather Stations

Station Location Temp. Windchill Dew Point Humidity Wind Precip. Elev Updated Type
                   

Watches & Warnings

There are currently no watches in effect.